sensor_id;sensor_type;location;lat;lon;timestamp;pressure;altitude;pressure_sealevel;temperature;humidity
45050;BME280;61798;48.048;-1.928;2023-02-12T00:00:41;102792.28;;;1.50;100.00
45050;BME280;61798;48.048;-1.928;2023-02-12T00:02:47;102763.00;;;1.19;100.00
45050;BME280;61798;48.048;-1.928;2023-02-12T00:04:53;102772.13;;;1.12;100.00
45050;BME280;61798;48.048;-1.928;2023-02-12T00:06:59;102778.88;;;1.00;100.00
45050;BME280;61798;48.048;-1.928;2023-02-12T00:09:05;102793.66;;;1.04;100.00
45050;BME280;61798;48.048;-1.928;2023-02-12T00:11:20;102809.81;;;1.15;100.00
45050;BME280;61798;48.048;-1.928;2023-02-12T00:13:29;102799.03;;;1.02;100.00
45050;BME280;61798;48.048;-1.928;2023-02-12T00:15:40;102798.94;;;1.04;100.00
45050;BME280;61798;48.048;-1.928;2023-02-12T00:17:46;102808.81;;;0.81;100.00
45050;BME280;61798;48.048;-1.928;2023-02-12T00:19:52;102797.94;;;0.69;100.00
45050;BME280;61798;48.048;-1.928;2023-02-12T00:21:59;102758.88;;;0.39;100.00
45050;BME280;61798;48.048;-1.928;2023-02-12T00:24:05;102804.06;;;0.70;100.00
45050;BME280;61798;48.048;-1.928;2023-02-12T00:26:14;102799.50;;;1.11;100.00
45050;BME280;61798;48.048;-1.928;2023-02-12T00:28:21;102792.13;;;1.18;100.00
45050;BME280;61798;48.048;-1.928;2023-02-12T00:30:26;102739.44;;;0.79;100.00
45050;BME280;61798;48.048;-1.928;2023-02-12T00:32:32;102782.97;;;1.07;100.00
45050;BME280;61798;48.048;-1.928;2023-02-12T00:34:39;102798.41;;;1.15;100.00
45050;BME280;61798;48.048;-1.928;2023-02-12T00:36:45;102770.97;;;1.00;100.00
45050;BME280;61798;48.048;-1.928;2023-02-12T00:38:53;102793.03;;;1.16;100.00
45050;BME280;61798;48.048;-1.928;2023-02-12T00:41:00;102766.00;;;0.93;100.00
45050;BME280;61798;48.048;-1.928;2023-02-12T00:43:06;102796.28;;;1.04;100.00
45050;BME280;61798;48.048;-1.928;2023-02-12T00:45:12;102783.47;;;0.96;100.00
45050;BME280;61798;48.048;-1.928;2023-02-12T00:47:18;102765.22;;;0.91;100.00
45050;BME280;61798;48.048;-1.928;2023-02-12T00:49:24;102772.13;;;0.94;100.00
45050;BME280;61798;48.048;-1.928;2023-02-12T00:51:30;102782.63;;;0.96;100.00
45050;BME280;61798;48.048;-1.928;2023-02-12T00:53:36;102793.75;;;1.02;100.00
45050;BME280;61798;48.048;-1.928;2023-02-12T00:55:43;102785.22;;;0.78;100.00
45050;BME280;61798;48.048;-1.928;2023-02-12T00:57:48;102776.06;;;0.85;100.00
45050;BME280;61798;48.048;-1.928;2023-02-12T00:59:54;102792.63;;;0.89;100.00
45050;BME280;61798;48.048;-1.928;2023-02-12T01:02:00;102781.00;;;0.56;100.00
45050;BME280;61798;48.048;-1.928;2023-02-12T01:04:06;102700.88;;;0.00;100.00
45050;BME280;61798;48.048;-1.928;2023-02-12T01:06:12;102762.88;;;0.28;100.00
45050;BME280;61798;48.048;-1.928;2023-02-12T01:08:18;102748.34;;;0.39;100.00
45050;BME280;61798;48.048;-1.928;2023-02-12T01:10:24;102767.13;;;0.70;100.00
45050;BME280;61798;48.048;-1.928;2023-02-12T01:12:31;102763.78;;;0.66;100.00
45050;BME280;61798;48.048;-1.928;2023-02-12T01:14:36;102758.94;;;0.57;100.00
45050;BME280;61798;48.048;-1.928;2023-02-12T01:16:42;102750.75;;;0.44;100.00
45050;BME280;61798;48.048;-1.928;2023-02-12T01:18:50;102767.13;;;0.70;100.00
45050;BME280;61798;48.048;-1.928;2023-02-12T01:20:56;102740.03;;;0.66;100.00
45050;BME280;61798;48.048;-1.928;2023-02-12T01:23:03;102704.84;;;0.48;100.00
45050;BME280;61798;48.048;-1.928;2023-02-12T01:25:11;102762.81;;;0.87;100.00
45050;BME280;61798;48.048;-1.928;2023-02-12T01:27:17;102750.06;;;0.77;100.00
45050;BME280;61798;48.048;-1.928;2023-02-12T01:29:23;102771.00;;;0.80;100.00
45050;BME280;61798;48.048;-1.928;2023-02-12T01:31:37;102764.97;;;0.78;100.00
45050;BME280;61798;48.048;-1.928;2023-02-12T01:33:50;102768.47;;;0.79;100.00
45050;BME280;61798;48.048;-1.928;2023-02-12T01:35:56;102750.44;;;0.69;100.00
45050;BME280;61798;48.048;-1.928;2023-02-12T01:38:02;102716.69;;;0.39;100.00
45050;BME280;61798;48.048;-1.928;2023-02-12T01:40:17;102756.19;;;0.78;100.00
45050;BME280;61798;48.048;-1.928;2023-02-12T01:42:24;102754.59;;;0.56;100.00
45050;BME280;61798;48.048;-1.928;2023-02-12T01:44:31;102756.75;;;0.47;100.00
45050;BME280;61798;48.048;-1.928;2023-02-12T01:46:38;102732.59;;;0.18;100.00
45050;BME280;61798;48.048;-1.928;2023-02-12T01:48:45;102751.03;;;0.18;100.00
45050;BME280;61798;48.048;-1.928;2023-02-12T01:50:53;102744.50;;;0.07;100.00
45050;BME280;61798;48.048;-1.928;2023-02-12T01:53:00;102721.59;;;-0.12;100.00
45050;BME280;61798;48.048;-1.928;2023-02-12T01:55:07;102749.53;;;0.51;100.00
45050;BME280;61798;48.048;-1.928;2023-02-12T01:57:15;102713.47;;;0.32;100.00
45050;BME280;61798;48.048;-1.928;2023-02-12T01:59:23;102694.91;;;0.16;100.00
45050;BME280;61798;48.048;-1.928;2023-02-12T02:01:31;102700.63;;;0.24;100.00
45050;BME280;61798;48.048;-1.928;2023-02-12T02:03:38;102729.94;;;0.37;100.00
45050;BME280;61798;48.048;-1.928;2023-02-12T02:06:01;102735.69;;;0.46;100.00
45050;BME280;61798;48.048;-1.928;2023-02-12T02:08:09;102717.03;;;0.31;100.00
45050;BME280;61798;48.048;-1.928;2023-02-12T02:10:16;102707.09;;;-0.01;100.00
45050;BME280;61798;48.048;-1.928;2023-02-12T02:12:23;102732.09;;;0.09;100.00
45050;BME280;61798;48.048;-1.928;2023-02-12T02:14:50;102701.84;;;-0.22;100.00
45050;BME280;61798;48.048;-1.928;2023-02-12T02:17:21;102721.69;;;-0.13;100.00
45050;BME280;61798;48.048;-1.928;2023-02-12T02:22:29;102710.56;;;-0.01;100.00
45050;BME280;61798;48.048;-1.928;2023-02-12T02:25:14;102726.31;;;0.01;100.00
45050;BME280;61798;48.048;-1.928;2023-02-12T02:27:39;102722.81;;;0.01;100.00
45050;BME280;61798;48.048;-1.928;2023-02-12T02:32:29;102722.53;;;-0.13;100.00
45050;BME280;61798;48.048;-1.928;2023-02-12T02:37:07;102734.75;;;-0.31;100.00
45050;BME280;61798;48.048;-1.928;2023-02-12T02:39:24;102718.69;;;-0.05;100.00
45050;BME280;61798;48.048;-1.928;2023-02-12T02:41:37;102730.34;;;-0.11;100.00
45050;BME280;61798;48.048;-1.928;2023-02-12T02:43:50;102723.28;;;-0.30;100.00
45050;BME280;61798;48.048;-1.928;2023-02-12T02:46:19;102728.63;;;-0.32;100.00
45050;BME280;61798;48.048;-1.928;2023-02-12T02:48:50;102710.94;;;-0.49;100.00
45050;BME280;61798;48.048;-1.928;2023-02-12T02:51:05;102721.91;;;-0.39;100.00
45050;BME280;61798;48.048;-1.928;2023-02-12T02:53:17;102696.03;;;-0.50;100.00
45050;BME280;61798;48.048;-1.928;2023-02-12T02:55:29;102708.34;;;-0.50;100.00
45050;BME280;61798;48.048;-1.928;2023-02-12T02:57:44;102678.91;;;-0.80;100.00
45050;BME280;61798;48.048;-1.928;2023-02-12T02:59:55;102716.75;;;-0.61;100.00
45050;BME280;61798;48.048;-1.928;2023-02-12T03:04:39;102714.31;;;-0.26;100.00
45050;BME280;61798;48.048;-1.928;2023-02-12T03:07:09;102711.75;;;-0.08;100.00
45050;BME280;61798;48.048;-1.928;2023-02-12T03:09:31;102679.41;;;-0.12;100.00
45050;BME280;61798;48.048;-1.928;2023-02-12T03:11:39;102684.34;;;-0.04;100.00
45050;BME280;61798;48.048;-1.928;2023-02-12T03:13:49;102703.22;;;0.06;100.00
45050;BME280;61798;48.048;-1.928;2023-02-12T03:17:01;102690.03;;;0.06;100.00
45050;BME280;61798;48.048;-1.928;2023-02-12T03:19:13;102695.72;;;0.16;100.00
45050;BME280;61798;48.048;-1.928;2023-02-12T03:21:28;102670.59;;;-0.11;100.00
45050;BME280;61798;48.048;-1.928;2023-02-12T03:23:43;102690.03;;;0.06;100.00
45050;BME280;61798;48.048;-1.928;2023-02-12T03:26:23;102694.09;;;-0.06;100.00
45050;BME280;61798;48.048;-1.928;2023-02-12T03:28:33;102698.88;;;-0.14;100.00
45050;BME280;61798;48.048;-1.928;2023-02-12T03:35:32;102690.94;;;-0.34;100.00
45050;BME280;61798;48.048;-1.928;2023-02-12T03:40:14;102687.59;;;-0.37;100.00
45050;BME280;61798;48.048;-1.928;2023-02-12T03:44:57;102699.22;;;-0.62;100.00
45050;BME280;61798;48.048;-1.928;2023-02-12T03:52:15;102699.69;;;-0.94;100.00
45050;BME280;61798;48.048;-1.928;2023-02-12T03:54:21;102698.09;;;-0.57;100.00
45050;BME280;61798;48.048;-1.928;2023-02-12T03:56:34;102694.75;;;-0.81;100.00
45050;BME280;61798;48.048;-1.928;2023-02-12T03:58:44;102684.16;;;-1.01;100.00
45050;BME280;61798;48.048;-1.928;2023-02-12T04:00:50;102664.47;;;-1.13;100.00
45050;BME280;61798;48.048;-1.928;2023-02-12T04:02:57;102685.53;;;-1.13;100.00
45050;BME280;61798;48.048;-1.928;2023-02-12T04:05:05;102657.78;;;-1.20;100.00
45050;BME280;61798;48.048;-1.928;2023-02-12T04:07:11;102631.78;;;-1.28;100.00
45050;BME280;61798;48.048;-1.928;2023-02-12T04:09:18;102679.16;;;-0.86;100.00
45050;BME280;61798;48.048;-1.928;2023-02-12T04:11:45;102649.00;;;-1.21;100.00
45050;BME280;61798;48.048;-1.928;2023-02-12T04:16:25;102702.72;;;-0.83;100.00
45050;BME280;61798;48.048;-1.928;2023-02-12T04:18:41;102693.28;;;-1.10;100.00
45050;BME280;61798;48.048;-1.928;2023-02-12T04:21:08;102694.94;;;-1.07;100.00
45050;BME280;61798;48.048;-1.928;2023-02-12T04:25:42;102695.81;;;-1.29;100.00
45050;BME280;61798;48.048;-1.928;2023-02-12T04:28:16;102690.34;;;-1.45;100.00
45050;BME280;61798;48.048;-1.928;2023-02-12T04:30:36;102682.06;;;-1.58;100.00
45050;BME280;61798;48.048;-1.928;2023-02-12T04:32:48;102667.75;;;-1.29;100.00
45050;BME280;61798;48.048;-1.928;2023-02-12T04:35:12;102689.25;;;-1.19;100.00
45050;BME280;61798;48.048;-1.928;2023-02-12T04:37:38;102698.75;;;-1.14;100.00
45050;BME280;61798;48.048;-1.928;2023-02-12T04:39:47;102694.94;;;-1.07;100.00
45050;BME280;61798;48.048;-1.928;2023-02-12T04:41:57;102700.41;;;-1.12;100.00
45050;BME280;61798;48.048;-1.928;2023-02-12T04:46:20;102682.81;;;-1.32;100.00
45050;BME280;61798;48.048;-1.928;2023-02-12T04:48:26;102700.09;;;-1.26;100.00
45050;BME280;61798;48.048;-1.928;2023-02-12T04:50:41;102710.97;;;-1.13;100.00
45050;BME280;61798;48.048;-1.928;2023-02-12T04:52:47;102695.03;;;-1.31;100.00
45050;BME280;61798;48.048;-1.928;2023-02-12T04:54:53;102694.59;;;-1.43;100.00
45050;BME280;61798;48.048;-1.928;2023-02-12T04:56:59;102700.97;;;-1.49;100.00
45050;BME280;61798;48.048;-1.928;2023-02-12T04:59:06;102710.03;;;-1.56;100.00
45050;BME280;61798;48.048;-1.928;2023-02-12T05:01:12;102665.44;;;-1.82;100.00
45050;BME280;61798;48.048;-1.928;2023-02-12T05:03:18;102651.19;;;-1.98;100.00
45050;BME280;61798;48.048;-1.928;2023-02-12T05:05:24;102709.09;;;-1.77;100.00
45050;BME280;61798;48.048;-1.928;2023-02-12T05:07:30;102697.88;;;-1.83;100.00
45050;BME280;61798;48.048;-1.928;2023-02-12T05:09:36;102695.38;;;-1.86;100.00
45050;BME280;61798;48.048;-1.928;2023-02-12T05:11:43;102709.41;;;-1.63;100.00
45050;BME280;61798;48.048;-1.928;2023-02-12T05:13:50;102701.09;;;-1.74;100.00
45050;BME280;61798;48.048;-1.928;2023-02-12T05:15:56;102721.22;;;-1.51;100.00
45050;BME280;61798;48.048;-1.928;2023-02-12T05:18:02;102715.16;;;-1.30;100.00
45050;BME280;61798;48.048;-1.928;2023-02-12T05:20:09;102696.31;;;-1.42;100.00
45050;BME280;61798;48.048;-1.928;2023-02-12T05:22:15;102694.72;;;-1.23;100.00
45050;BME280;61798;48.048;-1.928;2023-02-12T05:24:21;102700.97;;;-1.26;100.00
45050;BME280;61798;48.048;-1.928;2023-02-12T05:26:27;102712.44;;;-1.06;100.00
45050;BME280;61798;48.048;-1.928;2023-02-12T05:28:34;102709.03;;;-1.08;100.00
45050;BME280;61798;48.048;-1.928;2023-02-12T05:30:40;102685.59;;;-1.14;100.00
45050;BME280;61798;48.048;-1.928;2023-02-12T05:32:46;102698.03;;;-0.97;100.00
45050;BME280;61798;48.048;-1.928;2023-02-12T05:34:52;102711.88;;;-0.92;100.00
45050;BME280;61798;48.048;-1.928;2023-02-12T05:36:58;102676.25;;;-1.22;100.00
45050;BME280;61798;48.048;-1.928;2023-02-12T05:39:06;102708.38;;;-0.92;100.00
45050;BME280;61798;48.048;-1.928;2023-02-12T05:41:21;102703.13;;;-0.92;100.00
45050;BME280;61798;48.048;-1.928;2023-02-12T05:43:35;102678.47;;;-0.91;100.00
45050;BME280;61798;48.048;-1.928;2023-02-12T05:45:45;102679.03;;;-1.04;100.00
45050;BME280;61798;48.048;-1.928;2023-02-12T05:48:02;102673.16;;;-1.11;100.00
45050;BME280;61798;48.048;-1.928;2023-02-12T05:50:18;102663.75;;;-1.17;100.00
45050;BME280;61798;48.048;-1.928;2023-02-12T05:52:36;102673.38;;;-1.15;100.00
45050;BME280;61798;48.048;-1.928;2023-02-12T05:54:52;102691.16;;;-1.00;100.00
45050;BME280;61798;48.048;-1.928;2023-02-12T05:57:06;102692.28;;;-1.07;100.00
45050;BME280;61798;48.048;-1.928;2023-02-12T05:59:31;102663.28;;;-1.26;100.00
45050;BME280;61798;48.048;-1.928;2023-02-12T06:01:46;102701.78;;;-1.03;100.00
45050;BME280;61798;48.048;-1.928;2023-02-12T06:04:09;102689.16;;;-1.15;100.00
45050;BME280;61798;48.048;-1.928;2023-02-12T06:06:29;102703.94;;;-1.13;100.00
45050;BME280;61798;48.048;-1.928;2023-02-12T06:08:49;102686.63;;;-1.19;100.00
45050;BME280;61798;48.048;-1.928;2023-02-12T06:11:22;102705.13;;;-1.20;100.00
45050;BME280;61798;48.048;-1.928;2023-02-12T06:13:32;102700.53;;;-1.38;100.00
45050;BME280;61798;48.048;-1.928;2023-02-12T06:15:45;102682.31;;;-1.65;100.00
45050;BME280;61798;48.048;-1.928;2023-02-12T06:18:08;102710.03;;;-1.56;100.00
45050;BME280;61798;48.048;-1.928;2023-02-12T06:20:23;102650.88;;;-2.13;100.00
45050;BME280;61798;48.048;-1.928;2023-02-12T06:22:32;102727.25;;;-1.71;100.00
45050;BME280;61798;48.048;-1.928;2023-02-12T06:24:41;102691.34;;;-1.95;100.00
45050;BME280;61798;48.048;-1.928;2023-02-12T06:26:51;102719.16;;;-1.89;100.00
45050;BME280;61798;48.048;-1.928;2023-02-12T06:29:17;102701.06;;;-1.97;100.00
45050;BME280;61798;48.048;-1.928;2023-02-12T06:31:33;102704.84;;;-2.04;100.00
45050;BME280;61798;48.048;-1.928;2023-02-12T06:34:01;102686.75;;;-2.12;100.00
45050;BME280;61798;48.048;-1.928;2023-02-12T06:36:24;102711.28;;;-1.89;100.00
45050;BME280;61798;48.048;-1.928;2023-02-12T06:38:46;102696.78;;;-1.99;100.00
45050;BME280;61798;48.048;-1.928;2023-02-12T06:41:04;102705.69;;;-1.79;100.00
45050;BME280;61798;48.048;-1.928;2023-02-12T06:43:17;102711.72;;;-1.77;100.00
45050;BME280;61798;48.048;-1.928;2023-02-12T06:45:34;102709.97;;;-1.77;100.00
45050;BME280;61798;48.048;-1.928;2023-02-12T06:47:50;102653.63;;;-2.16;100.00
45050;BME280;61798;48.048;-1.928;2023-02-12T06:50:09;102716.75;;;-1.49;100.00
45050;BME280;61798;48.048;-1.928;2023-02-12T06:52:18;102692.59;;;-1.36;100.00
45050;BME280;61798;48.048;-1.928;2023-02-12T06:54:32;102709.72;;;-1.48;100.00
45050;BME280;61798;48.048;-1.928;2023-02-12T06:56:48;102707.03;;;-1.69;100.00
45050;BME280;61798;48.048;-1.928;2023-02-12T06:59:00;102694.44;;;-1.83;100.00
45050;BME280;61798;48.048;-1.928;2023-02-12T07:01:18;102655.91;;;-2.31;100.00
45050;BME280;61798;48.048;-1.928;2023-02-12T07:03:32;102699.69;;;-2.31;100.00
45050;BME280;61798;48.048;-1.928;2023-02-12T07:05:40;102713.84;;;-2.36;100.00
45050;BME280;61798;48.048;-1.928;2023-02-12T07:07:55;102688.63;;;-2.66;100.00
45050;BME280;61798;48.048;-1.928;2023-02-12T07:10:05;102715.94;;;-2.46;100.00
45050;BME280;61798;48.048;-1.928;2023-02-12T07:12:15;102697.72;;;-2.50;100.00
45050;BME280;61798;48.048;-1.928;2023-02-12T07:14:28;102693.41;;;-2.51;100.00
45050;BME280;61798;48.048;-1.928;2023-02-12T07:16:47;102711.81;;;-2.53;100.00
45050;BME280;61798;48.048;-1.928;2023-02-12T07:19:00;102687.00;;;-2.70;100.00
45050;BME280;61798;48.048;-1.928;2023-02-12T07:21:14;102679.22;;;-2.71;100.00
45050;BME280;61798;48.048;-1.928;2023-02-12T07:23:22;102694.34;;;-2.54;100.00
45050;BME280;61798;48.048;-1.928;2023-02-12T07:25:30;102679.06;;;-2.42;100.00
45050;BME280;61798;48.048;-1.928;2023-02-12T07:27:36;102688.78;;;-1.96;100.00
45050;BME280;61798;48.048;-1.928;2023-02-12T07:29:42;102701.97;;;-1.98;100.00
45050;BME280;61798;48.048;-1.928;2023-02-12T07:31:49;102656.72;;;-2.06;100.00
45050;BME280;61798;48.048;-1.928;2023-02-12T07:33:58;102673.31;;;-1.82;100.00
45050;BME280;61798;48.048;-1.928;2023-02-12T07:36:08;102706.25;;;-1.49;100.00
45050;BME280;61798;48.048;-1.928;2023-02-12T07:38:14;102688.88;;;-1.53;100.00
45050;BME280;61798;48.048;-1.928;2023-02-12T07:40:20;102649.09;;;-1.90;100.00
45050;BME280;61798;48.048;-1.928;2023-02-12T07:42:26;102691.44;;;-1.74;100.00
45050;BME280;61798;48.048;-1.928;2023-02-12T07:44:34;102703.66;;;-1.73;100.00
45050;BME280;61798;48.048;-1.928;2023-02-12T07:46:45;102708.06;;;-1.73;100.00
45050;BME280;61798;48.048;-1.928;2023-02-12T07:48:53;102704.75;;;-1.78;100.00
45050;BME280;61798;48.048;-1.928;2023-02-12T07:51:06;102709.63;;;-1.92;100.00
45050;BME280;61798;48.048;-1.928;2023-02-12T07:53:13;102720.25;;;-1.95;100.00
45050;BME280;61798;48.048;-1.928;2023-02-12T07:55:20;102714.81;;;-1.90;100.00
45050;BME280;61798;48.048;-1.928;2023-02-12T07:57:26;102693.88;;;-1.92;100.00
45050;BME280;61798;48.048;-1.928;2023-02-12T07:59:32;102696.94;;;-1.80;100.00
45050;BME280;61798;48.048;-1.928;2023-02-12T08:01:41;102728.06;;;-1.69;100.00
45050;BME280;61798;48.048;-1.928;2023-02-12T08:03:49;102713.41;;;-1.52;100.00
45050;BME280;61798;48.048;-1.928;2023-02-12T08:05:55;102685.09;;;-1.68;100.00
45050;BME280;61798;48.048;-1.928;2023-02-12T08:08:01;102688.13;;;-1.56;100.00
45050;BME280;61798;48.048;-1.928;2023-02-12T08:10:08;102721.97;;;-1.24;100.00
45050;BME280;61798;48.048;-1.928;2023-02-12T08:12:14;102670.56;;;-1.33;100.00
45050;BME280;61798;48.048;-1.928;2023-02-12T08:14:21;102655.47;;;-1.51;100.00
45050;BME280;61798;48.048;-1.928;2023-02-12T08:16:28;102720.72;;;-1.15;100.00
45050;BME280;61798;48.048;-1.928;2023-02-12T08:18:35;102674.38;;;-1.41;100.00
45050;BME280;61798;48.048;-1.928;2023-02-12T08:20:41;102663.03;;;-1.43;100.00
45050;BME280;61798;48.048;-1.928;2023-02-12T08:22:47;102626.75;;;-1.78;100.00
45050;BME280;61798;48.048;-1.928;2023-02-12T08:24:53;102702.53;;;-1.22;100.00
45050;BME280;61798;48.048;-1.928;2023-02-12T08:27:00;102682.84;;;-1.34;100.00
45050;BME280;61798;48.048;-1.928;2023-02-12T08:29:10;102673.50;;;-1.41;100.00
45050;BME280;61798;48.048;-1.928;2023-02-12T08:31:20;102734.56;;;-0.89;100.00
45050;BME280;61798;48.048;-1.928;2023-02-12T08:33:27;102708.56;;;-0.97;100.00
45050;BME280;61798;48.048;-1.928;2023-02-12T08:35:33;102728.97;;;-0.81;100.00
45050;BME280;61798;48.048;-1.928;2023-02-12T08:37:39;102685.97;;;-1.03;100.00
45050;BME280;61798;48.048;-1.928;2023-02-12T08:39:45;102700.16;;;-0.84;100.00
45050;BME280;61798;48.048;-1.928;2023-02-12T08:41:54;102738.47;;;-0.56;100.00
45050;BME280;61798;48.048;-1.928;2023-02-12T08:44:02;102737.63;;;-0.57;100.00
45050;BME280;61798;48.048;-1.928;2023-02-12T08:46:15;102727.84;;;-0.55;100.00
45050;BME280;61798;48.048;-1.928;2023-02-12T08:48:21;102735.41;;;-0.47;100.00
45050;BME280;61798;48.048;-1.928;2023-02-12T08:50:27;102739.38;;;-0.36;100.00
45050;BME280;61798;48.048;-1.928;2023-02-12T08:52:34;102689.94;;;-0.71;100.00
45050;BME280;61798;48.048;-1.928;2023-02-12T08:54:40;102687.56;;;-0.57;100.00
45050;BME280;61798;48.048;-1.928;2023-02-12T08:56:46;102722.63;;;-0.35;100.00
45050;BME280;61798;48.048;-1.928;2023-02-12T08:58:52;102720.22;;;-0.40;100.00
45050;BME280;61798;48.048;-1.928;2023-02-12T09:00:58;102718.88;;;-0.29;100.00
45050;BME280;61798;48.048;-1.928;2023-02-12T09:03:04;102727.28;;;-0.21;100.00
45050;BME280;61798;48.048;-1.928;2023-02-12T09:05:15;102725.94;;;-0.11;100.00
45050;BME280;61798;48.048;-1.928;2023-02-12T09:07:34;102728.56;;;-0.11;100.00
45050;BME280;61798;48.048;-1.928;2023-02-12T09:09:47;102705.56;;;-0.26;100.00
45050;BME280;61798;48.048;-1.928;2023-02-12T09:12:01;102720.53;;;-0.07;100.00
45050;BME280;61798;48.048;-1.928;2023-02-12T09:14:19;102706.97;;;-0.19;100.00
45050;BME280;61798;48.048;-1.928;2023-02-12T09:16:38;102729.53;;;0.08;100.00
45050;BME280;61798;48.048;-1.928;2023-02-12T09:18:54;102728.44;;;0.12;100.00
45050;BME280;61798;48.048;-1.928;2023-02-12T09:21:06;102683.13;;;-0.16;100.00
45050;BME280;61798;48.048;-1.928;2023-02-12T09:23:20;102727.31;;;-0.02;100.00
45050;BME280;61798;48.048;-1.928;2023-02-12T09:25:33;102730.16;;;0.13;100.00
45050;BME280;61798;48.048;-1.928;2023-02-12T09:27:49;102714.53;;;0.08;100.00
45050;BME280;61798;48.048;-1.928;2023-02-12T09:30:02;102731.16;;;0.30;100.00
45050;BME280;61798;48.048;-1.928;2023-02-12T09:32:14;102718.63;;;0.35;100.00
45050;BME280;61798;48.048;-1.928;2023-02-12T09:34:24;102723.22;;;0.49;100.00
45050;BME280;61798;48.048;-1.928;2023-02-12T09:36:39;102727.56;;;0.50;100.00
45050;BME280;61798;48.048;-1.928;2023-02-12T09:38:55;102722.94;;;0.56;100.00
45050;BME280;61798;48.048;-1.928;2023-02-12T09:51:15;102716.06;;;1.07;100.00
45050;BME280;61798;48.048;-1.928;2023-02-12T09:53:29;102727.81;;;1.19;100.00
45050;BME280;61798;48.048;-1.928;2023-02-12T09:55:46;102722.19;;;1.25;100.00
45050;BME280;61798;48.048;-1.928;2023-02-12T09:58:06;102736.09;;;1.29;100.00
45050;BME280;61798;48.048;-1.928;2023-02-12T10:00:42;102737.25;;;1.41;100.00
45050;BME280;61798;48.048;-1.928;2023-02-12T10:02:57;102706.34;;;1.25;100.00
45050;BME280;61798;48.048;-1.928;2023-02-12T10:05:30;102713.81;;;1.34;100.00
45050;BME280;61798;48.048;-1.928;2023-02-12T10:26:18;102728.59;;;1.89;100.00
45050;BME280;61798;48.048;-1.928;2023-02-12T10:28:34;102726.22;;;2.00;100.00
45050;BME280;61798;48.048;-1.928;2023-02-12T10:33:14;102742.81;;;2.37;100.00
45050;BME280;61798;48.048;-1.928;2023-02-12T10:35:26;102729.50;;;2.38;100.00
45050;BME280;61798;48.048;-1.928;2023-02-12T10:37:38;102745.00;;;2.61;100.00
45050;BME280;61798;48.048;-1.928;2023-02-12T10:39:54;102736.44;;;2.72;100.00
45050;BME280;61798;48.048;-1.928;2023-02-12T10:44:31;102720.38;;;2.75;100.00
45050;BME280;61798;48.048;-1.928;2023-02-12T10:46:40;102732.16;;;2.85;100.00
45050;BME280;61798;48.048;-1.928;2023-02-12T10:48:53;102730.19;;;2.89;100.00
45050;BME280;61798;48.048;-1.928;2023-02-12T10:53:33;102720.94;;;2.96;100.00
45050;BME280;61798;48.048;-1.928;2023-02-12T10:55:42;102720.06;;;2.96;100.00
45050;BME280;61798;48.048;-1.928;2023-02-12T10:57:52;102689.41;;;2.92;100.00
45050;BME280;61798;48.048;-1.928;2023-02-12T11:05:41;102718.25;;;3.27;100.00
45050;BME280;61798;48.048;-1.928;2023-02-12T11:07:57;102686.72;;;3.08;100.00
45050;BME280;61798;48.048;-1.928;2023-02-12T11:10:36;102710.81;;;3.34;100.00
45050;BME280;61798;48.048;-1.928;2023-02-12T11:12:47;102683.59;;;3.31;100.00
45050;BME280;61798;48.048;-1.928;2023-02-12T11:18:26;102696.97;;;3.44;100.00
45050;BME280;61798;48.048;-1.928;2023-02-12T11:20:56;102686.63;;;3.39;100.00
45050;BME280;61798;48.048;-1.928;2023-02-12T11:23:29;102684.88;;;3.54;100.00
45050;BME280;61798;48.048;-1.928;2023-02-12T11:26:02;102674.25;;;3.40;100.00
45050;BME280;61798;48.048;-1.928;2023-02-12T11:28:19;102680.94;;;3.31;100.00
45050;BME280;61798;48.048;-1.928;2023-02-12T11:30:32;102681.16;;;3.27;100.00
45050;BME280;61798;48.048;-1.928;2023-02-12T11:32:44;102672.44;;;3.40;100.00
45050;BME280;61798;48.048;-1.928;2023-02-12T11:35:17;102667.25;;;3.53;100.00
45050;BME280;61798;48.048;-1.928;2023-02-12T11:37:58;102658.44;;;3.67;100.00
45050;BME280;61798;48.048;-1.928;2023-02-12T11:40:30;102642.72;;;3.64;100.00
45050;BME280;61798;48.048;-1.928;2023-02-12T11:42:48;102645.94;;;3.69;100.00
45050;BME280;61798;48.048;-1.928;2023-02-12T11:44:57;102647.91;;;3.80;100.00
45050;BME280;61798;48.048;-1.928;2023-02-12T11:47:09;102618.84;;;3.64;100.00
45050;BME280;61798;48.048;-1.928;2023-02-12T11:49:24;102654.88;;;3.96;100.00
45050;BME280;61798;48.048;-1.928;2023-02-12T11:51:32;102628.63;;;3.91;100.00
45050;BME280;61798;48.048;-1.928;2023-02-12T11:53:42;102648.88;;;4.07;100.00
45050;BME280;61798;48.048;-1.928;2023-02-12T11:56:18;102651.03;;;4.15;100.00
45050;BME280;61798;48.048;-1.928;2023-02-12T11:58:25;102638.47;;;4.32;100.00
45050;BME280;61798;48.048;-1.928;2023-02-12T12:00:36;102638.31;;;4.48;100.00
45050;BME280;61798;48.048;-1.928;2023-02-12T12:02:57;102623.38;;;4.73;100.00
45050;BME280;61798;48.048;-1.928;2023-02-12T12:05:14;102605.41;;;4.64;100.00
45050;BME280;61798;48.048;-1.928;2023-02-12T12:07:28;102616.56;;;4.69;100.00
45050;BME280;61798;48.048;-1.928;2023-02-12T12:14:32;102601.06;;;4.22;100.00
45050;BME280;61798;48.048;-1.928;2023-02-12T12:17:12;102594.41;;;4.42;100.00
45050;BME280;61798;48.048;-1.928;2023-02-12T12:19:58;102598.38;;;4.63;100.00
45050;BME280;61798;48.048;-1.928;2023-02-12T12:22:22;102596.78;;;4.60;100.00
45050;BME280;61798;48.048;-1.928;2023-02-12T12:24:52;102589.78;;;4.72;100.00
45050;BME280;61798;48.048;-1.928;2023-02-12T12:27:19;102574.59;;;4.61;100.00
45050;BME280;61798;48.048;-1.928;2023-02-12T12:29:51;102572.59;;;4.65;100.00
45050;BME280;61798;48.048;-1.928;2023-02-12T12:32:04;102570.25;;;4.73;100.00
45050;BME280;61798;48.048;-1.928;2023-02-12T12:34:14;102560.34;;;4.75;100.00
45050;BME280;61798;48.048;-1.928;2023-02-12T12:41:13;102541.09;;;4.98;100.00
45050;BME280;61798;48.048;-1.928;2023-02-12T12:46:33;102537.03;;;5.32;100.00
45050;BME280;61798;48.048;-1.928;2023-02-12T12:53:59;102531.72;;;5.18;100.00
45050;BME280;61798;48.048;-1.928;2023-02-12T12:56:19;102528.66;;;5.25;100.00